Mallabula, New South Wales

10:23 AM AEDT on February 07, 2016 (GMT +1100)
Port Stephens | | Change Station
CLOSE
Current Station
Personal Weather Station
Location: Lemon Tree Pass., NSW
Elevation: 150 ft
Nearby Weather Stations

Elev 150 ft 32.73 °S, 152.03 °E | Updated 3 minutes ago

Mostly Cloudy
Mostly Cloudy
74.8 °F
Feels Like 76 °F
N
2.0
Wind Variable Wind from NE
Gusts 4.0 mph

Today
High -- | Low -- °F
--% Chance of Precip.
Yesterday
High -- | Low -- °F
Precip. -- in
Pressure 30.04 in
Visibility 6.2 miles
Clouds Mostly Cloudy 2800 ft
Mostly Cloudy 3500 ft
Mostly Cloudy 4200 ft
Heat Index 76 °F
Dew Point 65 °F
Humidity 72%
Rainfall 0.00 in
Snow Depth Not available.
6:20 AM 7:51 PM
Waning Crescent, 4% visible
METAR YWLM 062300Z AUTO 21005KT 9999 // BKN028 BKN035 BKN042 24/16 Q1017
Pressure 30.04 in
Visibility 6.2 miles
Clouds Mostly Cloudy 2800 ft
Mostly Cloudy 3500 ft
Mostly Cloudy 4200 ft
Heat Index 76 °F
Dew Point 65 °F
Humidity 72%
Rainfall 0.00 in
Snow Depth Not available.
6:20 AM 7:51 PM
Waning Crescent, 4% visible
METAR YWLM 062300Z AUTO 21005KT 9999 // BKN028 BKN035 BKN042 24/16 Q1017

10-Day Weather Forecast

Almanac

Astronomy

Feb. 07, 2016 Rise Set
Actual Time
Civil Twilight
Nautical Twilight
Astronomical Twilight
Moon
Length of Visible Light
Length of Day
Tomorrow will be .
, % of the Moon is Illuminated

Today's Extremes

Country Highs Country Lows

Community

WunderPhotos

Upload Photos

1,891,094 photos uploaded!

WunderBlog® & News

Nearby

Air Quality

  Air Quality AQ Index Pollutant
Not available.

Snow Depth

Station Depth Elevation

Earthquake Activity

City Distance Mag. Time & Date
Minimum magnitude displayed is 2.5.

Coastal Water Temperatures

Place Temperature

Stations

Nearby Weather Stations

Station Location Temp. Windchill Dew Point Humidity Wind Precip. Elev Updated Type